Time;durP1;ratioP1;P1;durP2;ratioP2;P2;SDS_P1;SDS_P2;PMS_P1;PMS_P2;Temp;Humidity;BMP_temperature;BMP_pressure;BME280_temperature;BME280_humidity;BME280_pressure;Samples;Min_cycle;Max_cycle;Signal;HPM_P1;HPM_P2
2022/08/21 00:01:43;;;;;;;63.77;10.37;;;;;;;;;;5069505;28;20470;-69
2022/08/21 00:04:11;;;;;;;18.43;9.40;;;;;;;;;;5049017;28;20513;-69
2022/08/21 00:06:39;;;;;;;18.37;9.93;;;;;;;;;;5055219;28;20705;-69
2022/08/21 00:09:08;;;;;;;20.60;7.50;;;;;;;;;;5064429;28;20494;-68
2022/08/21 00:11:36;;;;;;;21.63;11.33;;;;;;;;;;5060762;28;20494;-69
2022/08/21 00:14:04;;;;;;;19.13;8.40;;;;;;;;;;5070594;28;20486;-69
2022/08/21 00:16:31;;;;;;;37.60;12.20;;;;;;;;;;5063859;28;20489;-69
2022/08/21 00:18:59;;;;;;;21.53;8.73;;;;;;;;;;5068203;28;20867;-70
2022/08/21 00:21:26;;;;;;;35.97;11.20;;;;;;;;;;5067930;28;20483;-68
2022/08/21 00:23:53;;;;;;;38.97;9.33;;;;;;;;;;5064510;28;20478;-67
2022/08/21 00:26:21;;;;;;;30.60;8.17;;;;;;;;;;5061172;28;20861;-69
2022/08/21 00:28:48;;;;;;;36.30;9.40;;;;;;;;;;5044998;28;20481;-69
2022/08/21 00:31:16;;;;;;;29.83;8.97;;;;;;;;;;5067191;28;20566;-69
2022/08/21 00:33:43;;;;;;;25.57;8.97;;;;;;;;;;5068183;28;20482;-68
2022/08/21 00:36:11;;;;;;;20.93;8.30;;;;;;;;;;5068437;28;20651;-69
2022/08/21 00:38:38;;;;;;;34.40;11.90;;;;;;;;;;5068601;28;20732;-69
2022/08/21 00:41:07;;;;;;;26.23;9.37;;;;;;;;;;5064585;28;20483;-68
2022/08/21 00:43:38;;;;;;;17.60;7.57;;;16.70;83.10;;;;;;5064801;28;20478;-69
2022/08/21 00:46:06;;;;;;;21.50;7.60;;;;;;;;;;5055495;28;20807;-69
2022/08/21 00:48:33;;;;;;;28.47;10.67;;;;;;;;;;5062781;28;20479;-69
2022/08/21 00:51:03;;;;;;;15.80;8.10;;;;;;;;;;5065981;28;20486;-68
2022/08/21 00:53:30;;;;;;;19.00;8.93;;;;;;;;;;5071817;28;20473;-68
2022/08/21 00:55:59;;;;;;;27.73;10.53;;;16.30;83.70;;;;;;5067822;28;20495;-69
2022/08/21 00:58:27;;;;;;;32.60;9.97;;;;;;;;;;5068026;28;21463;-69
2022/08/21 01:01:02;;;;;;;25.93;8.60;;;16.00;84.50;;;;;;5071622;28;20496;-68
2022/08/21 01:03:29;;;;;;;28.77;11.30;;;;;;;;;;5067709;28;20477;-68
2022/08/21 01:05:56;;;;;;;40.17;9.10;;;;;;;;;;5065125;28;21488;-69
2022/08/21 01:08:24;;;;;;;53.20;13.77;;;16.00;84.10;;;;;;5064235;28;20910;-68
2022/08/21 01:10:53;;;;;;;36.33;10.47;;;;;;;;;;5044964;28;20475;-68
2022/08/21 01:13:22;;;;;;;37.33;10.40;;;15.90;84.60;;;;;;5071475;27;20486;-68
2022/08/21 01:15:52;;;;;;;31.07;9.03;;;15.90;84.20;;;;;;5066150;28;20479;-69
2022/08/21 01:18:21;;;;;;;43.47;9.57;;;15.70;84.50;;;;;;5067221;28;20571;-69
2022/08/21 01:21:00;;;;;;;38.50;10.63;;;;;;;;;;5056420;27;20893;-69
2022/08/21 01:23:27;;;;;;;54.60;14.97;;;;;;;;;;5059239;28;20470;-69
2022/08/21 01:25:54;;;;;;;32.73;10.47;;;15.70;84.80;;;;;;5047605;28;20482;-69
2022/08/21 01:28:22;;;;;;;43.93;13.50;;;15.60;85.00;;;;;;5045827;28;20674;-69
2022/08/21 01:30:52;;;;;;;29.87;8.40;;;15.60;84.90;;;;;;5064358;28;20493;-69
2022/08/21 01:33:19;;;;;;;29.23;9.13;;;;;;;;;;5067298;28;20482;-69
2022/08/21 01:35:46;;;;;;;57.50;13.17;;;;;;;;;;5067677;28;20494;-68
2022/08/21 01:38:15;;;;;;;26.87;10.10;;;15.50;85.50;;;;;;5061992;28;20493;-69
2022/08/21 01:40:43;;;;;;;40.50;10.10;;;;;;;;;;5070149;28;20996;-68
2022/08/21 01:43:10;;;;;;;41.30;9.57;;;;;;;;;;5071969;28;20478;-69
2022/08/21 01:45:37;;;;;;;66.83;12.37;;;;;;;;;;5075699;28;20524;-68
2022/08/21 01:48:04;;;;;;;35.50;8.83;;;;;;;;;;5057468;28;20502;-68
2022/08/21 01:50:31;;;;;;;45.53;13.20;;;;;;;;;;5065653;27;20492;-69
2022/08/21 01:52:58;;;;;;;34.83;8.10;;;15.30;84.80;;;;;;5088647;27;20485;-68
2022/08/21 01:55:26;;;;;;;64.57;13.97;;;15.20;85.10;;;;;;5042536;28;20488;-67
2022/08/21 01:57:54;;;;;;;31.20;8.40;;;;;;;;;;5050142;28;20510;-68
2022/08/21 02:00:23;;;;;;;30.37;10.00;;;15.20;85.10;;;;;;5046105;28;20472;-68
2022/08/21 02:02:50;;;;;;;32.90;9.47;;;;;;;;;;5037818;28;20488;-68
2022/08/21 02:05:18;;;;;;;35.27;8.87;;;;;;;;;;5037450;28;20499;-68
2022/08/21 02:07:46;;;;;;;33.63;8.37;;;;;;;;;;5038638;28;20494;-68
2022/08/21 02:10:16;;;;;;;20.93;8.77;;;15.10;85.70;;;;;;5038236;28;20480;-68
2022/08/21 02:12:46;;;;;;;28.10;9.03;;;;;;;;;;5047482;28;21047;-68
2022/08/21 02:15:13;;;;;;;34.97;8.00;;;;;;;;;;5042624;28;20598;-67
2022/08/21 02:17:42;;;;;;;30.10;8.10;;;14.80;85.90;;;;;;5050109;28;20541;-67
2022/08/21 02:20:10;;;;;;;20.60;7.20;;;;;;;;;;5039669;28;20812;-68
2022/08/21 02:22:37;;;;;;;39.83;11.40;;;;;;;;;;5037854;28;20767;-68
2022/08/21 02:25:05;;;;;;;21.23;7.10;;;14.40;86.70;;;;;;5040037;28;20494;-69
2022/08/21 02:27:39;;;;;;;48.23;14.03;;;14.40;86.80;;;;;;5040543;28;20510;-68
2022/08/21 02:30:10;;;;;;;29.17;8.27;;;14.30;87.70;;;;;;5059490;28;20476;-67
2022/08/21 02:32:37;;;;;;;45.97;11.73;;;;;;;;;;5084678;27;20982;-68
2022/08/21 02:35:05;;;;;;;31.83;9.30;;;;;;;;;;5039600;28;20479;-68
2022/08/21 02:37:32;;;;;;;64.93;14.23;;;;;;;;;;5039548;28;20494;-68
2022/08/21 02:40:00;;;;;;;34.17;7.80;;;;;;;;;;5039654;28;20478;-69
2022/08/21 02:42:28;;;;;;;68.30;15.50;;;;;;;;;;5077320;28;20510;-67
2022/08/21 02:44:55;;;;;;;43.00;9.23;;;14.20;87.70;;;;;;5075654;27;20488;-69
2022/08/21 02:47:23;;;;;;;40.13;10.37;;;;;;;;;;5091639;28;20773;-68
2022/08/21 02:49:50;;;;;;;34.30;8.43;;;;;;;;;;5089008;28;20482;-68
2022/08/21 02:52:18;;;;;;;35.10;10.30;;;;;;;;;;5068618;28;20489;-68
2022/08/21 02:54:45;;;;;;;33.47;9.83;;;;;;;;;;5063101;28;20485;-69
2022/08/21 02:57:12;;;;;;;45.50;8.80;;;;;;;;;;5041266;28;20992;-68
2022/08/21 02:59:40;;;;;;;51.90;10.80;;;14.20;87.40;;;;;;5051051;28;20854;-68
2022/08/21 03:02:07;;;;;;;26.13;7.70;;;;;;;;;;5059393;27;20563;-68
2022/08/21 03:04:36;;;;;;;46.53;12.10;;;;;;;;;;5065143;27;20472;-70
2022/08/21 03:07:03;;;;;;;38.10;10.50;;;;;;;;;;5038890;28;20990;-67
2022/08/21 03:09:30;;;;;;;74.30;13.93;;;;;;;;;;5061758;27;20504;-69
2022/08/21 03:11:57;;;;;;;41.50;9.33;;;;;;;;;;5056280;28;20496;-68
2022/08/21 03:14:24;;;;;;;54.80;13.37;;;;;;;;;;5072992;28;20482;-68
2022/08/21 03:16:51;;;;;;;45.47;11.50;;;;;;;;;;5042490;28;20839;-68
2022/08/21 03:19:19;;;;;;;30.90;9.80;;;;;;;;;;5048168;28;20482;-68
2022/08/21 03:21:47;;;;;;;37.33;8.87;;;;;;;;;;5072348;28;20476;-69
2022/08/21 03:24:14;;;;;;;23.60;7.77;;;13.30;89.50;;;;;;5062785;28;20922;-69
2022/08/21 03:26:41;;;;;;;44.00;11.60;;;;;;;;;;5080726;27;20484;-68
2022/08/21 03:29:08;;;;;;;24.00;7.70;;;;;;;;;;5066218;28;20485;-68
2022/08/21 03:31:35;;;;;;;67.80;14.17;;;13.30;90.10;;;;;;5028793;28;20907;-68
2022/08/21 03:34:02;;;;;;;37.50;9.33;;;;;;;;;;5044160;28;21250;-66
2022/08/21 03:36:29;;;;;;;71.83;14.50;;;;;;;;;;5056934;28;20990;-68
2022/08/21 03:38:57;;;;;;;39.27;9.70;;;13.20;89.80;;;;;;5056698;28;20490;-68
2022/08/21 03:41:24;;;;;;;63.00;14.30;;;;;;;;;;5057226;28;20486;-69
2022/08/21 03:43:51;;;;;;;32.90;9.33;;;;;;;;;;5044922;28;20503;-67
2022/08/21 03:46:19;;;;;;;33.53;8.77;;;;;;;;;;5042506;28;20485;-69
2022/08/21 03:48:46;;;;;;;38.27;9.50;;;;;;;;;;5064921;28;20623;-68
2022/08/21 03:51:13;;;;;;;33.10;9.20;;;;;;;;;;5043402;28;20477;-67
2022/08/21 03:53:40;;;;;;;47.63;11.70;;;;;;;;;;5038942;28;20478;-69
2022/08/21 03:56:10;;;;;;;23.33;8.37;;;;;;;;;;5044949;28;20486;-68
2022/08/21 03:58:38;;;;;;;56.97;12.23;;;;;;;;;;5047379;28;20518;-66
2022/08/21 04:01:06;;;;;;;35.50;9.40;;;13.20;90.00;;;;;;5050081;28;20500;-68
2022/08/21 04:03:33;;;;;;;58.50;14.13;;;;;;;;;;5047182;28;21013;-68
2022/08/21 04:06:01;;;;;;;35.57;9.87;;;;;;;;;;5040320;28;20838;-68
2022/08/21 04:08:28;;;;;;;56.03;10.60;;;;;;;;;;5046158;28;21143;-68
2022/08/21 04:10:57;;;;;;;30.93;9.10;;;12.90;90.10;;;;;;5062966;28;20535;-68
2022/08/21 04:13:30;;;;;;;62.37;13.90;;;12.90;90.60;;;;;;5075864;28;20487;-67
2022/08/21 04:15:57;;;;;;;57.53;9.97;;;;;;;;;;5051718;28;20486;-67
2022/08/21 04:18:25;;;;;;;49.97;11.90;;;;;;;;;;5083929;28;22030;-68
2022/08/21 04:20:54;;;;;;;31.23;8.97;;;;;;;;;;5069298;28;20479;-68
2022/08/21 04:23:22;;;;;;;32.37;9.17;;;;;;;;;;5078854;28;20487;-68
2022/08/21 04:25:50;;;;;;;47.10;10.90;;;;;;;;;;5044394;28;20491;-69
2022/08/21 04:28:19;;;;;;;36.33;9.37;;;12.70;90.80;;;;;;5043080;28;20497;-68
2022/08/21 04:30:48;;;;;;;37.87;9.07;;;12.70;90.60;;;;;;5041321;28;20489;-67
2022/08/21 04:33:15;;;;;;;36.30;11.40;;;;;;;;;;5036598;28;20997;-68
2022/08/21 04:35:43;;;;;;;50.47;10.67;;;;;;;;;;5042393;28;21174;-69
2022/08/21 04:38:10;;;;;;;38.33;9.83;;;;;;;;;;5025476;28;21590;-67
2022/08/21 04:40:37;;;;;;;62.10;13.47;;;;;;;;;;5039984;28;20491;-68
2022/08/21 04:43:06;;;;;;;53.70;9.70;;;;;;;;;;5045802;28;20480;-68
2022/08/21 04:45:36;;;;;;;49.60;10.57;;;12.90;90.00;;;;;;5040182;28;21704;-69
2022/08/21 04:48:05;;;;;;;46.17;9.33;;;;;;;;;;5046417;28;20477;-68
2022/08/21 04:50:38;;;;;;;52.43;12.97;;;;;;;;;;5041084;28;20986;-68
2022/08/21 04:53:06;;;;;;;23.70;7.70;;;;;;;;;;5041363;28;20569;-67
2022/08/21 04:55:33;;;;;;;59.43;13.77;;;;;;;;;;5040726;28;20486;-69
2022/08/21 04:58:01;;;;;;;33.40;9.67;;;;;;;;;;5036774;28;20487;-66
2022/08/21 05:00:28;;;;;;;73.30;16.00;;;;;;;;;;5040474;28;20836;-68
2022/08/21 05:02:58;;;;;;;29.73;8.53;;;12.90;90.50;;;;;;5038100;28;20479;-68
2022/08/21 05:05:29;;;;;;;56.67;12.80;;;12.90;90.50;;;;;;5035256;28;20843;-69
2022/08/21 05:07:57;;;;;;;56.93;12.10;;;;;;;;;;5042027;28;20584;-68
2022/08/21 05:10:25;;;;;;;51.60;12.77;;;;;;;;;;5044764;28;20490;-68
2022/08/21 05:12:53;;;;;;;24.40;7.60;;;;;;;;;;5036400;28;20483;-67
2022/08/21 05:15:20;;;;;;;38.97;9.63;;;;;;;;;;5032942;28;20684;-69
2022/08/21 05:17:48;;;;;;;38.80;8.17;;;;;;;;;;5055262;28;20494;-68
2022/08/21 05:20:15;;;;;;;24.00;7.30;;;;;;;;;;5038932;28;20483;-69
2022/08/21 05:22:44;;;;;;;45.43;10.00;;;;;;;;;;5028584;28;20497;-69
2022/08/21 05:25:12;;;;;;;34.77;8.57;;;;;;;;;;5065278;28;20492;-67
2022/08/21 05:27:40;;;;;;;41.30;10.97;;;;;;;;;;5074874;28;20490;-69
2022/08/21 05:30:08;;;;;;;24.83;8.07;;;;;;;;;;5066716;28;20821;-68
2022/08/21 05:32:36;;;;;;;49.07;12.13;;;;;;;;;;5051935;28;20838;-67
2022/08/21 05:35:03;;;;;;;44.53;10.43;;;;;;;;;;5041718;28;20500;-68
2022/08/21 05:37:30;;;;;;;58.40;11.33;;;;;;;;;;5025145;28;20483;-67
2022/08/21 05:40:00;;;;;;;35.13;8.90;;;;;;;;;;5039576;28;20485;-69
2022/08/21 05:42:27;;;;;;;74.40;14.73;;;;;;;;;;5075460;28;20495;-69
2022/08/21 05:44:55;;;;;;;34.97;9.23;;;12.90;92.80;;;;;;5066732;28;20550;-69
2022/08/21 05:47:23;;;;;;;48.53;10.53;;;;;;;;;;5070882;28;20481;-68
2022/08/21 05:49:50;;;;;;;49.30;11.10;;;;;;;;;;5075857;28;20963;-68
2022/08/21 05:52:20;;;;;;;48.40;11.07;;;;;;;;;;5060808;28;20482;-67
2022/08/21 05:54:47;;;;;;;42.00;9.37;;;;;;;;;;5038179;28;20489;-68
2022/08/21 05:57:15;;;;;;;36.43;10.27;;;;;;;;;;5049401;28;20469;-67
2022/08/21 05:59:43;;;;;;;58.70;12.53;;;;;;;;;;5068287;28;20968;-67
2022/08/21 06:02:11;;;;;;;36.70;10.87;;;;;;;;;;5071569;28;20486;-68
2022/08/21 06:04:38;;;;;;;51.53;13.63;;;;;;;;;;5072714;28;20583;-67
2022/08/21 06:07:06;;;;;;;40.97;11.53;;;;;;;;;;5063849;28;20503;-67
2022/08/21 06:09:33;;;;;;;75.07;17.40;;;;;;;;;;5068952;28;20478;-69
2022/08/21 06:12:05;;;;;;;33.67;10.53;;;13.80;96.20;;;;;;5072361;28;20488;-67
2022/08/21 06:14:33;;;;;;;50.50;13.50;;;;;;;;;;5074870;28;20484;-69
2022/08/21 06:17:04;;;;;;;53.63;15.20;;;14.20;96.30;;;;;;5046943;28;20486;-68
2022/08/21 06:19:31;;;;;;;77.40;17.67;;;;;;;;;;5048534;28;20533;-68
2022/08/21 06:21:58;;;;;;;40.37;10.17;;;14.70;96.60;;;;;;5081713;28;20475;-68
2022/08/21 06:24:25;;;;;;;66.53;15.47;;;;;;;;;;5043045;28;20484;-69
2022/08/21 06:26:53;;;;;;;61.43;14.97;;;;;;;;;;5036033;28;20560;-68
2022/08/21 06:29:20;;;;;;;41.87;10.07;;;;;;;;;;5039377;28;20471;-68
2022/08/21 06:31:49;;;;;;;43.30;12.00;;;15.50;96.20;;;;;;5047306;28;20482;-69
2022/08/21 06:34:17;;;;;;;34.63;11.97;;;;;;;;;;5070984;28;20853;-68
2022/08/21 06:36:44;;;;;;;54.97;14.93;;;;;;;;;;5070523;28;20487;-69
2022/08/21 06:39:13;;;;;;;31.90;10.83;;;;;;;;;;5074391;28;20474;-68
2022/08/21 06:41:40;;;;;;;66.13;12.80;;;;;;;;;;5074185;28;20481;-68
2022/08/21 06:44:07;;;;;;;43.00;13.67;;;17.10;95.40;;;;;;5076843;28;20491;-69
2022/08/21 06:46:34;;;;;;;56.67;16.13;;;;;;;;;;5072128;28;20486;-68
2022/08/21 06:49:03;;;;;;;29.67;9.50;;;;;;;;;;5075259;28;20516;-68
2022/08/21 06:51:30;;;;;;;53.03;13.80;;;;;;;;;;5076010;28;20485;-68
2022/08/21 06:53:57;;;;;;;40.03;11.17;;;;;;;;;;5072172;27;20519;-68
2022/08/21 06:56:24;;;;;;;37.60;11.70;;;;;;;;;;5075203;28;20478;-68
2022/08/21 06:58:51;;;;;;;38.37;12.17;;;;;;;;;;5067140;28;20477;-69
2022/08/21 07:01:25;;;;;;;35.07;12.00;;;20.60;88.90;;;;;;5070825;28;21089;-69
2022/08/21 07:03:53;;;;;;;40.13;10.87;;;;;;;;;;5070996;28;20520;-69
2022/08/21 07:06:21;;;;;;;29.17;9.40;;;21.20;85.50;;;;;;5075316;28;20544;-69
2022/08/21 07:08:48;;;;;;;34.50;10.10;;;;;;;;;;5070244;28;20893;-70
2022/08/21 07:11:19;;;;;;;33.93;8.20;;;21.60;82.00;;;;;;5058467;28;20552;-70
2022/08/21 07:13:47;;;;;;;38.97;10.70;;;;;;;;;;5039443;28;21098;-70
2022/08/21 07:16:14;;;;;;;40.70;10.70;;;;;;;;;;5058331;28;20484;-69
2022/08/21 07:18:41;;;;;;;28.57;9.03;;;;;;;;;;5037546;28;20493;-69
2022/08/21 07:21:09;;;;;;;24.63;8.60;;;21.90;81.50;;;;;;5048145;28;21056;-70
2022/08/21 07:23:40;;;;;;;49.37;13.40;;;22.00;82.20;;;;;;5038566;28;20480;-69
2022/08/21 07:26:07;;;;;;;25.60;8.73;;;;;;;;;;5032250;28;20971;-69
2022/08/21 07:28:35;;;;;;;57.47;15.70;;;22.40;80.30;;;;;;5044440;28;20497;-69
2022/08/21 07:31:03;;;;;;;30.20;9.00;;;22.60;80.00;;;;;;5043361;28;20866;-69
2022/08/21 07:33:32;;;;;;;56.30;14.40;;;22.70;78.70;;;;;;5039612;28;20488;-69
2022/08/21 07:36:00;;;;;;;40.03;12.03;;;;;;;;;;5039008;28;20483;-68
2022/08/21 07:38:27;;;;;;;40.77;10.90;;;;;;;;;;5036944;28;20491;-70
2022/08/21 07:40:58;;;;;;;30.23;9.00;;;;;;;;;;5026271;28;20487;-70
2022/08/21 07:43:25;;;;;;;39.17;9.57;;;;;;;;;;5037646;28;20476;-70
2022/08/21 07:45:53;;;;;;;39.20;8.90;;;;;;;;;;5040350;28;20470;-70
2022/08/21 07:48:20;;;;;;;31.20;10.23;;;;;;;;;;5059671;28;20525;-68
2022/08/21 07:50:48;;;;;;;37.93;9.97;;;;;;;;;;5037210;28;20579;-69
2022/08/21 07:53:15;;;;;;;36.53;10.90;;;;;;;;;;5039534;28;21121;-70
2022/08/21 07:55:42;;;;;;;25.03;8.03;;;;;;;;;;5042739;28;20521;-70
2022/08/21 07:58:10;;;;;;;27.10;8.37;;;24.30;78.00;;;;;;5042688;28;20489;-70
2022/08/21 08:00:37;;;;;;;45.67;11.50;;;;;;;;;;5035219;28;20600;-70
2022/08/21 08:03:04;;;;;;;23.17;8.20;;;;;;;;;;5054981;28;21008;-70
2022/08/21 08:05:32;;;;;;;48.23;12.43;;;24.60;73.40;;;;;;5039562;28;20479;-69
2022/08/21 08:07:59;;;;;;;33.27;8.97;;;;;;;;;;5040748;28;20474;-70
2022/08/21 08:10:27;;;;;;;47.80;12.60;;;;;;;;;;5043322;28;20476;-70
2022/08/21 08:12:55;;;;;;;37.17;9.30;;;;;;;;;;5068402;28;20494;-70
2022/08/21 08:15:26;;;;;;;39.93;10.87;;;25.70;72.50;;;;;;5057783;28;20467;-71
2022/08/21 08:17:54;;;;;;;30.43;10.03;;;;;;;;;;5062783;28;20803;-69
2022/08/21 08:20:22;;;;;;;28.60;9.37;;;25.90;70.90;;;;;;5079207;28;20504;-70
2022/08/21 08:22:49;;;;;;;28.83;8.33;;;;;;;;;;5079090;28;21571;-71
2022/08/21 08:25:17;;;;;;;20.07;6.90;;;;;;;;;;5077695;28;20893;-71
2022/08/21 08:27:44;;;;;;;37.60;9.07;;;;;;;;;;5073369;28;20582;-70
2022/08/21 08:30:14;;;;;;;21.97;7.10;;;26.90;66.30;;;;;;5067022;28;20478;-71
2022/08/21 08:32:42;;;;;;;30.53;8.17;;;27.10;67.40;;;;;;5078063;28;20529;-71
2022/08/21 08:35:11;;;;;;;44.33;8.30;;;;;;;;;;5079776;28;21007;-71
2022/08/21 08:37:39;;;;;;;32.27;9.90;;;;;;;;;;5072826;28;20558;-71
2022/08/21 08:40:07;;;;;;;16.70;5.90;;;27.80;64.80;;;;;;5080663;28;20617;-71
2022/08/21 08:42:36;;;;;;;44.07;10.70;;;28.00;64.20;;;;;;5079596;28;20482;-70
2022/08/21 08:45:07;;;;;;;26.17;8.63;;;28.10;64.40;;;;;;5078677;28;20638;-70
2022/08/21 08:47:37;;;;;;;39.50;12.97;;;;;;;;;;5074488;28;20589;-70
2022/08/21 08:50:07;;;;;;;33.03;8.20;;;;;;;;;;5074461;27;20472;-70
2022/08/21 08:52:36;;;;;;;58.30;13.53;;;;;;;;;;5072056;28;20478;-71
2022/08/21 08:55:05;;;;;;;24.43;7.63;;;;;;;;;;5073985;28;20482;-71
2022/08/21 08:57:34;;;;;;;51.43;12.50;;;;;;;;;;5070478;28;20832;-71
2022/08/21 09:00:02;;;;;;;35.23;9.77;;;;;;;;;;5031025;28;20563;-70
2022/08/21 09:02:29;;;;;;;26.83;8.87;;;;;;;;;;5040002;28;20639;-71
2022/08/21 09:04:57;;;;;;;20.83;7.13;;;29.00;59.10;;;;;;5039789;28;20562;-72
2022/08/21 09:07:33;;;;;;;48.70;12.67;;;;;;;;;;5037064;28;20480;-71
2022/08/21 09:10:10;;;;;;;25.60;7.20;;;28.70;58.50;;;;;;5036789;28;20745;-70
2022/08/21 09:12:40;;;;;;;36.23;10.57;;;;;;;;;;5032343;28;20463;-70
2022/08/21 09:15:18;;;;;;;28.37;7.97;;;28.90;60.40;;;;;;5035417;28;20462;-70
2022/08/21 09:17:55;;;;;;;27.37;8.00;;;;;;;;;;5071752;28;20491;-71
2022/08/21 09:20:25;;;;;;;27.17;8.33;;;;;;;;;;5036883;28;20501;-71
2022/08/21 09:23:01;;;;;;;32.47;9.67;;;;;;;;;;5038289;28;20486;-71
2022/08/21 09:25:29;;;;;;;25.60;11.27;;;;;;;;;;5040551;28;20475;-71
2022/08/21 09:27:56;;;;;;;24.97;8.73;;;29.80;58.60;;;;;;5037590;28;20591;-71
2022/08/21 09:30:29;;;;;;;27.73;7.80;;;29.80;57.80;;;;;;5060513;28;20486;-69
2022/08/21 09:32:56;;;;;;;24.80;6.93;;;;;;;;;;5038380;28;20477;-70
2022/08/21 09:35:25;;;;;;;23.80;8.03;;;30.10;58.00;;;;;;5045137;28;20462;-71
2022/08/21 09:37:55;;;;;;;21.13;7.43;;;30.20;58.10;;;;;;5039223;28;20505;-71
2022/08/21 09:40:30;;;;;;;27.77;7.03;;;;;;;;;;5046027;28;20828;-71
2022/08/21 09:42:59;;;;;;;26.33;7.93;;;29.80;55.00;;;;;;5038307;28;20479;-71
2022/08/21 09:45:27;;;;;;;29.50;11.20;;;;;;;;;;5036465;28;23281;-69
2022/08/21 09:47:54;;;;;;;22.10;8.47;;;;;;;;;;5046919;28;20493;-70
2022/08/21 09:50:22;;;;;;;25.50;7.77;;;;;;;;;;5041571;28;21154;-69
2022/08/21 09:52:50;;;;;;;31.70;7.50;;;;;;;;;;5042183;28;20509;-71
2022/08/21 09:58:11;;;;;;;34.33;8.30;;;;;;;;;;5033185;28;20479;-71
2022/08/21 10:00:38;;;;;;;22.53;8.63;;;;;;;;;;5059095;28;20921;-70
2022/08/21 10:03:09;;;;;;;17.20;7.17;;;;;;;;;;5058016;28;20888;-72
2022/08/21 10:05:36;;;;;;;28.13;9.10;;;;;;;;;;5057346;28;20457;-72
2022/08/21 10:08:04;;;;;;;26.43;8.43;;;;;;;;;;5046107;28;20468;-69
2022/08/21 10:10:33;;;;;;;25.97;9.40;;;;;;;;;;5035586;28;20929;-72
2022/08/21 10:13:09;;;;;;;27.23;7.50;;;29.50;55.10;;;;;;5040151;28;20458;-72
2022/08/21 10:15:47;;;;;;;14.47;7.53;;;29.80;56.20;;;;;;5025706;28;20463;-70
2022/08/21 10:18:18;;;;;;;27.33;6.70;;;;;;;;;;5039543;28;20850;-70
2022/08/21 10:20:46;;;;;;;17.60;6.43;;;;;;;;;;5065452;28;20455;-73
2022/08/21 10:23:29;;;;;;;10.03;4.93;;;;;;;;;;5050623;28;20878;-72
2022/08/21 10:26:02;;;;;;;27.67;7.67;;;30.50;53.40;;;;;;5036168;28;20462;-71
2022/08/21 10:28:32;;;;;;;17.83;6.13;;;;;;;;;;5036507;28;20502;-71
2022/08/21 10:31:11;;;;;;;10.63;5.60;;;30.60;54.80;;;;;;5037747;28;20467;-70
2022/08/21 10:33:47;;;;;;;20.73;7.17;;;30.80;54.10;;;;;;5061687;28;21032;-69
2022/08/21 10:36:19;;;;;;;8.63;5.40;;;31.10;54.30;;;;;;5043272;28;20490;-70
2022/08/21 10:39:08;;;;;;;7.73;5.13;;;31.20;53.00;;;;;;5035597;28;22251;-69
2022/08/21 10:41:55;;;;;;;8.00;6.67;;;31.20;54.10;;;;;;5073647;28;20484;-70
2022/08/21 10:44:31;;;;;;;23.80;7.20;;;31.00;51.40;;;;;;5065109;28;20484;-69
2022/08/21 10:47:05;;;;;;;12.53;5.83;;;30.50;51.50;;;;;;5071090;28;20501;-70
2022/08/21 10:49:40;;;;;;;8.53;6.47;;;30.00;50.20;;;;;;5077611;28;21046;-70
2022/08/21 10:52:36;;;;;;;9.00;5.47;;;29.90;50.50;;;;;;5075312;28;20439;-69
2022/08/21 10:55:08;;;;;;;9.60;5.07;;;29.80;52.00;;;;;;5078712;28;20478;-71
2022/08/21 10:57:42;;;;;;;7.97;6.73;;;;;;;;;;5077730;28;20452;-69
2022/08/21 11:00:12;;;;;;;22.27;5.90;;;29.90;52.00;;;;;;5080196;28;20536;-70
2022/08/21 11:02:44;;;;;;;8.70;6.17;;;;;;;;;;5078683;28;20470;-71
2022/08/21 11:05:16;;;;;;;9.60;4.60;;;29.70;51.30;;;;;;5076856;28;20476;-70
2022/08/21 11:07:48;;;;;;;11.93;4.93;;;34.30;55.50;;;;;;5068404;28;20482;-70
2022/08/21 11:10:19;;;;;;;8.77;5.30;;;;;;;;;;5056666;28;21218;-71
2022/08/21 11:12:50;;;;;;;14.70;5.17;;;30.90;51.70;;;;;;5040427;28;20466;-71
2022/08/21 11:15:38;;;;;;;5.40;4.40;;;31.00;50.20;;;;;;5046057;28;20459;-71
2022/08/21 11:18:17;;;;;;;15.67;5.23;;;30.40;48.30;;;;;;5040202;28;20472;-71
2022/08/21 11:20:49;;;;;;;8.33;5.53;;;30.10;50.20;;;;;;5072792;28;20445;-70
2022/08/21 11:23:20;;;;;;;17.00;5.20;;;;;;;;;;5073526;28;20485;-71
2022/08/21 11:25:50;;;;;;;12.03;5.20;;;;;;;;;;5076247;28;20482;-72
2022/08/21 11:28:19;;;;;;;10.23;5.77;;;;;;;;;;5076591;28;20705;-71
2022/08/21 11:30:49;;;;;;;11.87;4.77;;;;;;;;;;5078071;28;20999;-71
2022/08/21 11:33:26;;;;;;;12.30;5.80;;;;;;;;;;5078503;28;20493;-71
2022/08/21 11:36:03;;;;;;;22.53;5.70;;;29.60;50.00;;;;;;5079159;28;21048;-71
2022/08/21 11:38:38;;;;;;;30.40;11.23;;;29.60;49.00;;;;;;5077929;28;21249;-69
2022/08/21 11:41:17;;;;;;;19.50;6.00;;;29.20;50.40;;;;;;5076025;28;20511;-69
2022/08/21 11:43:46;;;;;;;12.93;5.50;;;;;;;;;;5049793;28;20445;-72
2022/08/21 11:46:18;;;;;;;37.90;7.70;;;;;;;;;;5054962;28;20496;-70
2022/08/21 11:48:52;;;;;;;7.60;4.10;;;;;;;;;;5056605;28;20821;-70
2022/08/21 11:51:27;;;;;;;6.83;4.00;;;29.40;51.10;;;;;;5077782;28;20455;-71
2022/08/21 11:54:03;;;;;;;9.80;5.43;;;29.80;51.50;;;;;;5045561;28;20499;-70
2022/08/21 11:56:33;;;;;;;13.90;6.63;;;30.30;52.90;;;;;;5056080;28;20449;-71
2022/08/21 11:59:05;;;;;;;15.27;4.93;;;30.70;52.70;;;;;;5051899;28;20469;-72
2022/08/21 12:01:36;;;;;;;10.40;6.63;;;31.20;51.50;;;;;;5046883;28;21196;-71
2022/08/21 12:04:10;;;;;;;5.70;5.20;;;31.50;51.40;;;;;;5046531;28;20477;-71
2022/08/21 12:06:38;;;;;;;9.00;6.67;;;;;;;;;;5058279;28;20518;-72
2022/08/21 12:09:09;;;;;;;9.63;5.90;;;31.90;50.10;;;;;;5075708;28;20983;-70
2022/08/21 12:11:48;;;;;;;14.93;6.10;;;29.10;48.80;;;;;;5043684;28;20455;-71
2022/08/21 12:14:16;;;;;;;5.90;4.63;;;32.20;49.40;;;;;;5039394;28;21009;-72
2022/08/21 12:16:45;;;;;;;22.17;6.40;;;32.40;49.40;;;;;;5043656;28;20450;-71
2022/08/21 12:19:29;;;;;;;6.40;3.67;;;32.60;50.10;;;;;;5039146;28;20458;-72
2022/08/21 12:22:00;;;;;;;5.90;5.00;;;;;;;;;;5072142;28;20867;-73
2022/08/21 12:24:36;;;;;;;11.17;6.17;;;32.80;48.80;;;;;;5072133;28;21124;-72
2022/08/21 12:27:25;;;;;;;5.00;4.33;;;32.50;48.10;;;;;;5074938;27;20486;-72
2022/08/21 12:29:55;;;;;;;4.37;3.97;;;32.50;49.20;;;;;;5048956;28;20475;-73
2022/08/21 12:32:26;;;;;;;14.27;4.60;;;32.30;48.20;;;;;;5044438;28;21260;-72
2022/08/21 12:35:01;;;;;;;6.10;5.20;;;32.00;48.00;;;;;;5056259;28;21118;-72
2022/08/21 12:37:38;;;;;;;12.93;6.37;;;32.10;49.40;;;;;;5038792;28;20479;-70
2022/08/21 12:40:14;;;;;;;7.77;5.70;;;32.10;48.90;;;;;;5042157;28;20479;-70
2022/08/21 12:42:45;;;;;;;9.27;5.03;;;32.10;48.90;;;;;;5039188;28;20460;-71
2022/08/21 12:45:17;;;;;;;23.17;5.20;;;;;;;;;;5049682;28;20479;-71
2022/08/21 12:47:47;;;;;;;8.33;4.50;;;;;;;;;;5046574;28;20467;-70
2022/08/21 12:50:20;;;;;;;11.87;4.80;;;32.60;46.90;;;;;;5051754;28;20490;-71
2022/08/21 12:53:03;;;;;;;10.63;5.20;;;32.90;48.40;;;;;;5048572;28;20453;-71
2022/08/21 12:55:33;;;;;;;6.93;5.80;;;32.80;47.40;;;;;;5055869;28;20493;-71
2022/08/21 12:58:01;;;;;;;5.17;3.63;;;33.00;48.80;;;;;;5053840;28;20446;-70
2022/08/21 13:00:30;;;;;;;8.50;5.87;;;33.00;47.50;;;;;;5050416;28;20498;-72
2022/08/21 13:02:57;;;;;;;21.60;5.77;;;;;;;;;;5049868;28;20446;-71
2022/08/21 13:05:31;;;;;;;7.90;5.20;;;;;;;;;;5056077;28;20457;-70
2022/08/21 13:08:00;;;;;;;8.07;4.30;;;33.10;47.90;;;;;;5049209;28;20479;-71
2022/08/21 13:10:30;;;;;;;10.00;6.63;;;33.20;47.30;;;;;;5055879;28;20445;-71
2022/08/21 13:12:59;;;;;;;5.47;3.70;;;33.00;46.00;;;;;;5056991;28;20487;-71
2022/08/21 13:15:28;;;;;;;6.60;5.43;;;;;;;;;;5051655;28;20470;-71
2022/08/21 13:18:01;;;;;;;6.50;3.87;;;32.50;45.50;;;;;;5044108;28;20466;-70
2022/08/21 13:20:32;;;;;;;12.03;10.80;;;32.30;46.00;;;;;;5046896;28;20715;-71
2022/08/21 13:22:59;;;;;;;15.00;7.10;;;32.30;46.20;;;;;;5026495;28;20540;-71
2022/08/21 13:25:29;;;;;;;9.13;7.57;;;32.40;46.40;;;;;;5047264;28;20483;-70
2022/08/21 13:28:02;;;;;;;11.23;5.90;;;32.60;45.60;;;;;;5061409;28;20988;-70
2022/08/21 13:30:30;;;;;;;10.10;7.07;;;;;;;;;;5058173;28;20458;-70
2022/08/21 13:32:59;;;;;;;11.43;5.37;;;32.30;45.60;;;;;;5064350;28;21064;-69
2022/08/21 13:35:29;;;;;;;13.10;7.20;;;32.00;44.00;;;;;;5064622;28;20486;-71
2022/08/21 13:37:58;;;;;;;9.57;6.73;;;;;;;;;;5060370;28;20935;-71
2022/08/21 13:40:27;;;;;;;18.83;12.13;;;34.60;46.20;;;;;;5056361;28;20981;-71
2022/08/21 13:42:55;;;;;;;23.60;6.43;;;32.10;47.00;;;;;;5068508;28;20456;-72
2022/08/21 13:45:27;;;;;;;11.60;6.90;;;;;;;;;;5064295;28;20470;-71
2022/08/21 13:47:55;;;;;;;6.37;4.97;;;;;;;;;;5060845;28;20833;-71
2022/08/21 13:50:23;;;;;;;8.17;5.50;;;31.70;44.40;;;;;;5063921;28;20452;-70
2022/08/21 13:52:58;;;;;;;9.10;6.40;;;31.60;44.70;;;;;;5062296;28;21346;-69
2022/08/21 13:55:35;;;;;;;14.37;5.00;;;31.40;44.30;;;;;;5059102;28;20452;-69
2022/08/21 13:58:04;;;;;;;9.03;6.83;;;31.60;44.20;;;;;;5060930;28;20711;-71